Time,TemperatureF,DewpointF,PressureIn,WindDirection,WindDirectionDegrees,WindSpeedMPH,WindSpeedGustMPH,Humidity,HourlyPrecipIn,Conditions,Clouds,dailyrainin,SoftwareType,DateUTC
2013-01-14 00:00:00,36.5,36.0,29.96,West,270,5.0,6.0,98,0.00,,,0.00,meteohub,2013-01-14 00:00:00,
2013-01-14 00:05:00,36.5,36.0,29.96,West,270,5.0,9.0,98,0.00,,,0.00,meteohub,2013-01-14 00:05:00,
2013-01-14 00:10:00,36.5,36.0,29.96,West,270,6.0,9.0,98,0.00,,,0.00,meteohub,2013-01-14 00:10:00,
2013-01-14 00:15:00,36.3,35.8,29.96,WNW,292,6.0,9.0,98,0.00,,,0.00,meteohub,2013-01-14 00:15:00,
2013-01-14 00:20:00,36.3,35.8,29.96,WNW,292,7.0,8.0,98,0.00,,,0.00,meteohub,2013-01-14 00:20:00,
2013-01-14 00:25:00,36.3,35.8,29.96,West,270,6.0,9.0,98,0.00,,,0.00,meteohub,2013-01-14 00:25:00,
2013-01-14 00:30:00,36.1,35.6,29.96,WNW,292,8.0,9.0,98,0.00,,,0.00,meteohub,2013-01-14 00:30:00,
2013-01-14 00:35:00,36.1,35.6,29.96,WNW,292,4.0,9.0,98,0.00,,,0.00,meteohub,2013-01-14 00:35:00,
2013-01-14 00:40:00,36.1,35.6,29.96,WNW,292,6.0,9.0,98,0.00,,,0.00,meteohub,2013-01-14 00:40:00,
2013-01-14 00:45:00,36.1,35.6,29.96,WNW,292,6.0,9.0,98,0.00,,,0.00,meteohub,2013-01-14 00:45:00,
2013-01-14 00:50:00,36.1,35.6,29.96,West,270,5.0,10.0,98,0.00,,,0.00,meteohub,2013-01-14 00:50:00,
2013-01-14 00:55:00,36.1,35.6,29.96,WSW,248,8.0,10.0,98,0.00,,,0.00,meteohub,2013-01-14 00:55:00,
2013-01-14 01:03:00,36.0,35.4,29.96,WNW,292,6.0,13.0,98,0.00,,,0.00,meteohub,2013-01-14 01:03:00,
2013-01-14 01:08:00,36.0,35.4,29.96,WNW,292,6.0,13.0,98,0.00,,,0.00,meteohub,2013-01-14 01:08:00,
2013-01-14 01:13:00,35.8,35.2,29.96,NW,315,6.0,13.0,98,0.00,,,0.00,meteohub,2013-01-14 01:13:00,
2013-01-14 01:18:00,35.8,35.2,29.93,NW,315,6.0,11.0,98,0.00,,,0.00,meteohub,2013-01-14 01:18:00,
2013-01-14 01:23:00,35.6,35.1,29.93,NW,315,6.0,11.0,98,0.00,,,0.00,meteohub,2013-01-14 01:23:00,
2013-01-14 01:28:00,35.6,35.1,29.93,NW,315,3.0,10.0,98,0.00,,,0.00,meteohub,2013-01-14 01:28:00,
2013-01-14 01:33:00,35.6,35.1,29.93,WNW,292,6.0,9.0,98,0.00,,,0.00,meteohub,2013-01-14 01:33:00,
2013-01-14 01:38:00,35.8,35.2,29.93,WNW,292,6.0,9.0,98,0.00,,,0.00,meteohub,2013-01-14 01:38:00,
2013-01-14 01:43:00,35.8,35.2,29.93,West,270,3.0,8.0,98,0.00,,,0.00,meteohub,2013-01-14 01:43:00,
2013-01-14 01:48:00,35.8,35.2,29.93,West,270,1.0,6.0,98,0.00,,,0.00,meteohub,2013-01-14 01:48:00,
2013-01-14 01:53:00,35.8,35.2,29.93,West,270,4.0,6.0,98,0.00,,,0.00,meteohub,2013-01-14 01:53:00,
2013-01-14 01:58:00,35.8,35.2,29.93,West,270,2.0,6.0,98,0.00,,,0.00,meteohub,2013-01-14 01:58:00,
2013-01-14 02:03:00,35.8,35.2,29.93,West,270,3.0,6.0,98,0.00,,,0.00,meteohub,2013-01-14 02:03:00,
2013-01-14 02:08:00,35.8,35.2,29.93,WSW,248,4.0,6.0,98,0.00,,,0.00,meteohub,2013-01-14 02:08:00,
2013-01-14 02:14:00,35.8,35.2,29.93,West,270,4.0,5.0,98,0.00,,,0.00,meteohub,2013-01-14 02:14:00,
2013-01-14 02:19:00,35.8,35.2,29.93,West,270,5.0,5.0,98,0.00,,,0.00,meteohub,2013-01-14 02:19:00,
2013-01-14 02:24:00,36.0,35.4,29.93,West,270,6.0,6.0,98,0.00,,,0.00,meteohub,2013-01-14 02:24:00,
2013-01-14 02:29:00,36.0,35.4,29.93,WSW,248,6.0,6.0,98,0.00,,,0.00,meteohub,2013-01-14 02:29:00,
2013-01-14 02:34:00,36.0,35.4,29.90,West,270,3.0,6.0,98,0.00,,,0.00,meteohub,2013-01-14 02:34:00,
2013-01-14 02:39:00,35.8,35.2,29.90,West,270,2.0,6.0,98,0.00,,,0.00,meteohub,2013-01-14 02:39:00,
2013-01-14 02:44:00,35.8,35.2,29.90,West,270,3.0,6.0,98,0.00,,,0.00,meteohub,2013-01-14 02:44:00,
2013-01-14 02:49:00,36.0,35.4,29.90,WSW,248,2.0,6.0,98,0.00,,,0.00,meteohub,2013-01-14 02:49:00,
2013-01-14 02:54:00,36.0,35.4,29.90,WSW,248,2.0,4.0,98,0.00,,,0.00,meteohub,2013-01-14 02:54:00,
2013-01-14 02:59:00,36.0,35.4,29.90,ESE,112,2.0,4.0,98,0.00,,,0.00,meteohub,2013-01-14 02:59:00,
2013-01-14 03:04:00,36.0,35.4,29.90,East,90,2.0,4.0,98,0.00,,,0.00,meteohub,2013-01-14 03:04:00,
2013-01-14 03:09:00,36.0,35.4,29.90,SE,135,3.0,3.0,98,0.00,,,0.00,meteohub,2013-01-14 03:09:00,
2013-01-14 03:14:00,36.0,35.4,29.90,SSE,158,2.0,3.0,98,0.00,,,0.00,meteohub,2013-01-14 03:14:00,
2013-01-14 03:19:00,36.0,35.4,29.90,SSE,158,2.0,3.0,98,0.00,,,0.00,meteohub,2013-01-14 03:19:00,
2013-01-14 03:24:00,36.0,35.4,29.90,SSE,158,0.0,3.0,98,0.00,,,0.00,meteohub,2013-01-14 03:24:00,
2013-01-14 03:29:00,36.0,35.4,29.90,SE,135,0.0,3.0,98,0.00,,,0.00,meteohub,2013-01-14 03:29:00,
2013-01-14 03:34:00,36.0,35.4,29.87,East,90,2.0,2.0,98,0.00,,,0.00,meteohub,2013-01-14 03:34:00,
2013-01-14 03:39:00,36.0,35.4,29.87,East,90,3.0,3.0,98,0.00,,,0.00,meteohub,2013-01-14 03:39:00,
2013-01-14 03:45:00,36.0,35.4,29.87,ESE,112,3.0,3.0,98,0.00,,,0.00,meteohub,2013-01-14 03:45:00,
2013-01-14 03:50:00,36.0,35.4,29.87,ESE,112,3.0,3.0,98,0.00,,,0.00,meteohub,2013-01-14 03:50:00,
2013-01-14 03:55:00,36.0,35.4,29.87,ESE,112,2.0,3.0,98,0.00,,,0.00,meteohub,2013-01-14 03:55:00,
2013-01-14 04:00:00,36.0,35.4,29.87,East,90,3.0,3.0,98,0.00,,,0.00,meteohub,2013-01-14 04:00:00,
2013-01-14 04:05:00,36.0,35.4,29.87,ENE,68,2.0,3.0,98,0.00,,,0.00,meteohub,2013-01-14 04:05:00,
2013-01-14 04:10:00,36.0,35.4,29.87,East,90,4.0,4.0,98,0.00,,,0.00,meteohub,2013-01-14 04:10:00,
2013-01-14 04:15:00,36.0,35.4,29.87,East,90,3.0,4.0,98,0.00,,,0.00,meteohub,2013-01-14 04:15:00,
2013-01-14 04:20:00,36.0,35.4,29.84,East,90,3.0,4.0,98,0.00,,,0.00,meteohub,2013-01-14 04:20:00,
2013-01-14 04:25:00,36.0,35.4,29.84,East,90,4.0,4.0,98,0.00,,,0.00,meteohub,2013-01-14 04:25:00,
2013-01-14 04:30:00,36.0,35.4,29.84,ESE,112,4.0,5.0,98,0.00,,,0.00,meteohub,2013-01-14 04:30:00,
2013-01-14 04:35:00,36.0,35.4,29.84,East,90,4.0,5.0,98,0.00,,,0.00,meteohub,2013-01-14 04:35:00,
2013-01-14 04:40:00,36.0,35.4,29.84,East,90,4.0,5.0,98,0.00,,,0.00,meteohub,2013-01-14 04:40:00,
2013-01-14 04:45:00,36.0,35.4,29.84,East,90,4.0,5.0,98,0.00,,,0.00,meteohub,2013-01-14 04:45:00,
2013-01-14 04:50:00,36.0,35.4,29.81,East,90,4.0,5.0,98,0.00,,,0.00,meteohub,2013-01-14 04:50:00,
2013-01-14 04:55:00,36.0,35.4,29.81,East,90,4.0,5.0,98,0.00,,,0.00,meteohub,2013-01-14 04:55:00,
2013-01-14 05:00:00,36.0,35.4,29.81,SE,135,4.0,5.0,98,0.00,,,0.00,meteohub,2013-01-14 05:00:00,
2013-01-14 05:01:00,36.0,35.4,29.81,SE,135,3.0,5.0,98,0.00,,,0.00,meteohub,2013-01-14 05:01:00,
2013-01-14 05:03:00,36.0,35.4,29.81,SE,135,4.0,5.0,98,0.00,,,0.00,meteohub,2013-01-14 05:03:00,
2013-01-14 05:08:00,36.0,35.4,29.81,SE,135,3.0,5.0,98,0.00,,,0.00,meteohub,2013-01-14 05:08:00,
2013-01-14 05:13:00,36.0,35.4,29.81,ESE,112,3.0,5.0,98,0.01,,,0.01,meteohub,2013-01-14 05:13:00,
2013-01-14 05:19:00,36.0,35.4,29.81,East,90,4.0,5.0,98,0.01,,,0.01,meteohub,2013-01-14 05:19:00,
2013-01-14 05:24:00,36.0,35.4,29.81,ESE,112,3.0,4.0,98,0.01,,,0.01,meteohub,2013-01-14 05:24:00,
2013-01-14 05:29:00,36.0,35.4,29.81,East,90,5.0,5.0,98,0.01,,,0.01,meteohub,2013-01-14 05:29:00,
2013-01-14 05:34:00,36.0,35.4,29.81,ESE,112,3.0,5.0,98,0.01,,,0.01,meteohub,2013-01-14 05:34:00,
2013-01-14 05:39:00,36.0,35.4,29.81,ESE,112,5.0,5.0,98,0.01,,,0.01,meteohub,2013-01-14 05:39:00,
2013-01-14 05:44:00,36.1,35.6,29.81,SE,135,4.0,5.0,98,0.02,,,0.02,meteohub,2013-01-14 05:44:00,
2013-01-14 05:49:00,36.1,35.6,29.81,SE,135,5.0,5.0,98,0.02,,,0.02,meteohub,2013-01-14 05:49:00,
2013-01-14 05:54:00,36.1,35.6,29.81,ESE,112,6.0,6.0,98,0.02,,,0.02,meteohub,2013-01-14 05:54:00,
2013-01-14 05:59:00,36.1,35.6,29.81,ESE,112,5.0,6.0,98,0.02,,,0.02,meteohub,2013-01-14 05:59:00,
2013-01-14 06:04:00,36.1,35.6,29.78,SE,135,5.0,6.0,98,0.02,,,0.02,meteohub,2013-01-14 06:04:00,
2013-01-14 06:09:00,36.1,35.6,29.78,SE,135,4.0,6.0,98,0.03,,,0.03,meteohub,2013-01-14 06:09:00,
2013-01-14 06:14:00,36.1,35.6,29.78,SE,135,6.0,6.0,98,0.02,,,0.03,meteohub,2013-01-14 06:14:00,
2013-01-14 06:20:00,36.3,35.8,29.78,SE,135,3.0,6.0,98,0.02,,,0.03,meteohub,2013-01-14 06:20:00,
2013-01-14 06:25:00,36.3,35.8,29.78,SSE,158,4.0,7.0,98,0.02,,,0.03,meteohub,2013-01-14 06:25:00,
2013-01-14 06:30:00,36.3,35.8,29.78,South,180,6.0,7.0,98,0.03,,,0.04,meteohub,2013-01-14 06:30:00,
2013-01-14 06:35:00,36.5,36.0,29.78,South,180,6.0,7.0,98,0.04,,,0.05,meteohub,2013-01-14 06:35:00,
2013-01-14 06:40:00,36.7,36.1,29.78,SSE,158,5.0,7.0,98,0.04,,,0.06,meteohub,2013-01-14 06:40:00,
2013-01-14 06:45:00,36.7,36.1,29.78,SSW,202,5.0,6.0,98,0.05,,,0.07,meteohub,2013-01-14 06:45:00,
2013-01-14 06:50:00,36.9,36.3,29.78,WSW,248,3.0,8.0,98,0.05,,,0.07,meteohub,2013-01-14 06:50:00,
2013-01-14 06:55:00,36.9,36.3,29.78,SW,225,2.0,8.0,98,0.05,,,0.07,meteohub,2013-01-14 06:55:00,
2013-01-14 07:00:00,36.9,36.3,29.78,SSW,202,3.0,8.0,98,0.04,,,0.07,meteohub,2013-01-14 07:00:00,
2013-01-14 07:05:00,37.0,36.5,29.75,WSW,248,3.0,6.0,98,0.04,,,0.07,meteohub,2013-01-14 07:05:00,
2013-01-14 07:11:00,37.0,36.5,29.75,WSW,248,3.0,6.0,98,0.04,,,0.07,meteohub,2013-01-14 07:11:00,
2013-01-14 07:16:00,37.2,36.7,29.75,SSW,202,5.0,8.0,98,0.04,,,0.07,meteohub,2013-01-14 07:16:00,
2013-01-14 07:21:00,37.2,36.7,29.75,WSW,248,4.0,8.0,98,0.04,,,0.07,meteohub,2013-01-14 07:21:00,
2013-01-14 07:26:00,37.4,36.9,29.75,WSW,248,4.0,8.0,98,0.04,,,0.07,meteohub,2013-01-14 07:26:00,
2013-01-14 07:31:00,37.4,36.9,29.75,West,270,4.0,6.0,98,0.03,,,0.07,meteohub,2013-01-14 07:31:00,
2013-01-14 07:36:00,37.4,36.9,29.75,WSW,248,3.0,6.0,98,0.02,,,0.07,meteohub,2013-01-14 07:36:00,
2013-01-14 07:41:00,37.4,36.9,29.75,West,270,1.0,6.0,98,0.01,,,0.07,meteohub,2013-01-14 07:41:00,
2013-01-14 07:46:00,37.4,36.9,29.75,West,270,4.0,6.0,98,0.00,,,0.07,meteohub,2013-01-14 07:46:00,
2013-01-14 07:51:00,37.4,36.9,29.75,West,270,6.0,7.0,98,0.00,,,0.07,meteohub,2013-01-14 07:51:00,
2013-01-14 07:56:00,37.4,36.9,29.75,West,270,6.0,8.0,98,0.00,,,0.07,meteohub,2013-01-14 07:56:00,
2013-01-14 08:01:00,37.2,36.7,29.75,West,270,6.0,10.0,98,0.00,,,0.07,meteohub,2013-01-14 08:01:00,
2013-01-14 08:07:00,37.0,36.5,29.78,West,270,6.0,10.0,98,0.00,,,0.07,meteohub,2013-01-14 08:07:00,
2013-01-14 08:12:00,37.0,36.5,29.78,WSW,248,7.0,10.0,98,0.00,,,0.07,meteohub,2013-01-14 08:12:00,
2013-01-14 08:17:00,37.0,36.5,29.78,WSW,248,6.0,10.0,98,0.00,,,0.07,meteohub,2013-01-14 08:17:00,
2013-01-14 08:22:00,36.9,36.3,29.78,West,270,3.0,11.0,98,0.00,,,0.07,meteohub,2013-01-14 08:22:00,
2013-01-14 08:27:00,36.5,36.0,29.78,West,270,5.0,11.0,98,0.00,,,0.07,meteohub,2013-01-14 08:27:00,
2013-01-14 08:32:00,36.1,35.6,29.78,West,270,6.0,11.0,98,0.00,,,0.07,meteohub,2013-01-14 08:32:00,
2013-01-14 08:37:00,35.8,35.2,29.78,WSW,248,5.0,8.0,98,0.00,,,0.07,meteohub,2013-01-14 08:37:00,
2013-01-14 08:42:00,35.6,35.1,29.78,West,270,4.0,7.0,98,0.00,,,0.07,meteohub,2013-01-14 08:42:00,
2013-01-14 08:48:00,35.1,34.5,29.78,West,270,3.0,7.0,98,0.00,,,0.07,meteohub,2013-01-14 08:48:00,
2013-01-14 08:53:00,34.9,34.3,29.78,WNW,292,6.0,7.0,98,0.00,,,0.07,meteohub,2013-01-14 08:53:00,
2013-01-14 08:58:00,34.7,34.2,29.78,WNW,292,4.0,6.0,98,0.00,,,0.07,meteohub,2013-01-14 08:58:00,
2013-01-14 09:03:00,34.3,33.8,29.78,West,270,4.0,6.0,98,0.00,,,0.07,meteohub,2013-01-14 09:03:00,
2013-01-14 09:08:00,34.3,33.8,29.78,SW,225,3.0,6.0,98,0.00,,,0.07,meteohub,2013-01-14 09:08:00,
2013-01-14 09:13:00,34.3,33.8,29.78,WSW,248,4.0,6.0,98,0.00,,,0.07,meteohub,2013-01-14 09:13:00,
2013-01-14 09:19:00,34.3,33.8,29.78,SW,225,3.0,6.0,98,0.00,,,0.07,meteohub,2013-01-14 09:19:00,
2013-01-14 09:24:00,34.2,33.6,29.78,WSW,248,3.0,6.0,98,0.00,,,0.07,meteohub,2013-01-14 09:24:00,
2013-01-14 09:29:00,34.0,33.4,29.78,WSW,248,3.0,5.0,98,0.00,,,0.07,meteohub,2013-01-14 09:29:00,
2013-01-14 09:34:00,33.8,33.3,29.78,WSW,248,1.0,5.0,98,0.00,,,0.07,meteohub,2013-01-14 09:34:00,
2013-01-14 09:39:00,33.8,33.3,29.78,WSW,248,0.0,4.0,98,0.00,,,0.07,meteohub,2013-01-14 09:39:00,
2013-01-14 09:44:00,33.6,33.1,29.78,SE,135,0.0,4.0,98,0.00,,,0.07,meteohub,2013-01-14 09:44:00,
2013-01-14 09:49:00,33.4,32.9,29.78,East,90,3.0,4.0,98,0.00,,,0.07,meteohub,2013-01-14 09:49:00,
2013-01-14 09:54:00,33.3,32.7,29.78,East,90,0.0,3.0,98,0.00,,,0.07,meteohub,2013-01-14 09:54:00,
2013-01-14 09:59:00,33.3,32.7,29.78,NE,45,0.0,4.0,98,0.00,,,0.07,meteohub,2013-01-14 09:59:00,
2013-01-14 10:04:00,33.3,32.7,29.78,ENE,68,0.0,4.0,98,0.00,,,0.07,meteohub,2013-01-14 10:04:00,
2013-01-14 10:09:00,33.3,32.7,29.78,South,180,0.0,4.0,98,0.00,,,0.07,meteohub,2013-01-14 10:09:00,
2013-01-14 10:15:00,33.3,32.7,29.78,South,180,0.0,2.0,98,0.00,,,0.07,meteohub,2013-01-14 10:15:00,
2013-01-14 10:20:00,33.3,32.7,29.78,WNW,292,0.0,2.0,98,0.00,,,0.07,meteohub,2013-01-14 10:20:00,
2013-01-14 10:25:00,33.6,33.1,29.78,WNW,292,3.0,3.0,98,0.00,,,0.07,meteohub,2013-01-14 10:25:00,
2013-01-14 10:30:00,33.8,33.3,29.78,NNW,338,4.0,4.0,98,0.00,,,0.07,meteohub,2013-01-14 10:30:00,
2013-01-14 10:35:00,34.3,33.8,29.78,WNW,292,6.0,6.0,98,0.00,,,0.07,meteohub,2013-01-14 10:35:00,
2013-01-14 10:40:00,34.7,34.2,29.78,WNW,292,7.0,8.0,98,0.00,,,0.07,meteohub,2013-01-14 10:40:00,
2013-01-14 10:45:00,35.1,34.5,29.78,WNW,292,11.0,11.0,98,0.00,,,0.07,meteohub,2013-01-14 10:45:00,
2013-01-14 10:50:00,35.4,34.9,29.78,WNW,292,8.0,11.0,98,0.00,,,0.07,meteohub,2013-01-14 10:50:00,
2013-01-14 10:55:00,35.6,35.1,29.78,WNW,292,10.0,11.0,98,0.00,,,0.07,meteohub,2013-01-14 10:55:00,
2013-01-14 11:00:00,35.8,35.2,29.78,WNW,292,7.0,11.0,98,0.00,,,0.07,meteohub,2013-01-14 11:00:00,
2013-01-14 11:05:00,36.0,35.4,29.78,WNW,292,6.0,11.0,98,0.00,,,0.07,meteohub,2013-01-14 11:05:00,
2013-01-14 11:10:00,35.8,35.2,29.78,West,270,5.0,11.0,98,0.00,,,0.07,meteohub,2013-01-14 11:10:00,
2013-01-14 11:15:00,36.0,35.4,29.78,WNW,292,3.0,9.0,98,0.00,,,0.07,meteohub,2013-01-14 11:15:00,
2013-01-14 11:20:00,36.0,35.4,29.78,WSW,248,6.0,7.0,98,0.00,,,0.07,meteohub,2013-01-14 11:20:00,
2013-01-14 11:25:00,35.8,35.2,29.78,WNW,292,6.0,6.0,98,0.00,,,0.07,meteohub,2013-01-14 11:25:00,
2013-01-14 11:31:00,35.8,35.2,29.78,WNW,292,6.0,8.0,98,0.00,,,0.07,meteohub,2013-01-14 11:31:00,
2013-01-14 11:36:00,35.8,35.2,29.78,WNW,292,9.0,9.0,98,0.00,,,0.07,meteohub,2013-01-14 11:36:00,
2013-01-14 11:41:00,35.8,35.2,29.78,NW,315,7.0,10.0,98,0.00,,,0.07,meteohub,2013-01-14 11:41:00,
2013-01-14 11:46:00,36.0,35.4,29.78,WNW,292,6.0,10.0,98,0.00,,,0.07,meteohub,2013-01-14 11:46:00,
2013-01-14 11:51:00,36.0,35.4,29.78,WNW,292,6.0,10.0,98,0.00,,,0.07,meteohub,2013-01-14 11:51:00,
2013-01-14 11:56:00,36.0,35.4,29.78,West,270,7.0,11.0,98,0.00,,,0.07,meteohub,2013-01-14 11:56:00,
2013-01-14 12:01:00,36.1,35.6,29.78,WNW,292,8.0,11.0,98,0.00,,,0.07,meteohub,2013-01-14 12:01:00,
2013-01-14 12:06:00,36.1,35.6,29.75,WNW,292,11.0,11.0,98,0.00,,,0.07,meteohub,2013-01-14 12:06:00,
2013-01-14 12:11:00,36.0,34.9,29.75,WNW,292,12.0,12.0,96,0.00,,,0.07,meteohub,2013-01-14 12:11:00,
2013-01-14 12:16:00,35.8,34.2,29.75,WNW,292,13.0,13.0,94,0.00,,,0.07,meteohub,2013-01-14 12:16:00,
2013-01-14 12:21:00,36.0,33.6,29.75,WNW,292,10.0,13.0,91,0.00,,,0.07,meteohub,2013-01-14 12:21:00,
2013-01-14 12:26:00,36.0,33.3,29.75,NW,315,6.0,13.0,90,0.00,,,0.07,meteohub,2013-01-14 12:26:00,
2013-01-14 12:31:00,36.1,33.3,29.75,North,-999,-999.0,13.0,89,0.00,,,0.07,meteohub,2013-01-14 12:31:00,
2013-01-14 12:37:00,36.3,33.1,29.75,NNW,338,9.0,10.0,88,0.00,,,0.07,meteohub,2013-01-14 12:37:00,
2013-01-14 12:42:00,36.3,32.9,29.75,NW,315,7.0,10.0,87,0.00,,,0.07,meteohub,2013-01-14 12:42:00,
2013-01-14 12:47:00,36.5,32.7,29.75,WNW,292,9.0,10.0,86,0.00,,,0.07,meteohub,2013-01-14 12:47:00,
2013-01-14 12:52:00,36.5,32.7,29.75,WNW,292,8.0,9.0,86,0.00,,,0.07,meteohub,2013-01-14 12:52:00,
2013-01-14 12:57:00,36.7,32.9,29.75,West,270,3.0,9.0,86,0.00,,,0.07,meteohub,2013-01-14 12:57:00,
2013-01-14 13:02:00,36.7,33.3,29.75,West,270,6.0,8.0,87,0.00,,,0.07,meteohub,2013-01-14 13:02:00,
2013-01-14 13:07:00,36.7,33.3,29.75,WNW,292,8.0,8.0,87,0.00,,,0.07,meteohub,2013-01-14 13:07:00,
2013-01-14 13:12:00,36.9,33.6,29.75,WNW,292,6.0,8.0,88,0.00,,,0.07,meteohub,2013-01-14 13:12:00,
2013-01-14 13:17:00,36.9,33.6,29.75,WNW,292,6.0,8.0,88,0.00,,,0.07,meteohub,2013-01-14 13:17:00,
2013-01-14 13:22:00,36.9,33.6,29.75,West,270,6.0,8.0,88,0.00,,,0.07,meteohub,2013-01-14 13:22:00,
2013-01-14 13:27:00,36.9,33.6,29.75,West,270,6.0,8.0,88,0.00,,,0.07,meteohub,2013-01-14 13:27:00,
2013-01-14 13:32:00,36.9,33.6,29.75,West,270,8.0,8.0,88,0.00,,,0.07,meteohub,2013-01-14 13:32:00,
2013-01-14 13:37:00,36.9,33.6,29.75,NW,315,5.0,8.0,88,0.00,,,0.07,meteohub,2013-01-14 13:37:00,
2013-01-14 13:43:00,36.9,33.6,29.75,West,270,4.0,8.0,88,0.00,,,0.07,meteohub,2013-01-14 13:43:00,
2013-01-14 13:48:00,36.9,33.4,29.75,West,270,3.0,8.0,87,0.00,,,0.07,meteohub,2013-01-14 13:48:00,
2013-01-14 13:53:00,36.9,33.6,29.75,West,270,3.0,7.0,88,0.00,,,0.07,meteohub,2013-01-14 13:53:00,
2013-01-14 13:58:00,36.9,33.6,29.75,West,270,4.0,7.0,88,0.00,,,0.07,meteohub,2013-01-14 13:58:00,
2013-01-14 14:03:00,36.9,33.4,29.75,West,270,4.0,7.0,87,0.00,,,0.07,meteohub,2013-01-14 14:03:00,
2013-01-14 14:08:00,37.0,33.3,29.75,West,270,6.0,7.0,86,0.00,,,0.07,meteohub,2013-01-14 14:08:00,
2013-01-14 14:13:00,37.0,33.3,29.75,WSW,248,4.0,7.0,86,0.00,,,0.07,meteohub,2013-01-14 14:13:00,
2013-01-14 14:18:00,37.0,33.3,29.75,West,270,6.0,7.0,86,0.00,,,0.07,meteohub,2013-01-14 14:18:00,
2013-01-14 14:23:00,37.0,32.9,29.75,West,270,5.0,7.0,85,0.00,,,0.07,meteohub,2013-01-14 14:23:00,
2013-01-14 14:28:00,37.0,33.3,29.75,WSW,248,3.0,7.0,86,0.00,,,0.07,meteohub,2013-01-14 14:28:00,
2013-01-14 14:33:00,37.0,33.3,29.75,West,270,5.0,7.0,86,0.00,,,0.07,meteohub,2013-01-14 14:33:00,
2013-01-14 14:38:00,37.0,33.3,29.75,West,270,5.0,7.0,86,0.00,,,0.07,meteohub,2013-01-14 14:38:00,
2013-01-14 14:43:00,37.0,33.3,29.75,West,270,4.0,7.0,86,0.00,,,0.07,meteohub,2013-01-14 14:43:00,
2013-01-14 14:48:00,37.0,33.3,29.75,West,270,4.0,7.0,86,0.00,,,0.07,meteohub,2013-01-14 14:48:00,
2013-01-14 14:53:00,37.0,33.3,29.75,West,270,3.0,7.0,86,0.00,,,0.07,meteohub,2013-01-14 14:53:00,
2013-01-14 14:58:00,37.2,33.8,29.75,WNW,292,5.0,6.0,87,0.00,,,0.07,meteohub,2013-01-14 14:58:00,
2013-01-14 15:04:00,37.2,33.8,29.75,West,270,5.0,6.0,87,0.00,,,0.07,meteohub,2013-01-14 15:04:00,
2013-01-14 15:09:00,37.4,33.6,29.75,West,270,2.0,6.0,86,0.00,,,0.07,meteohub,2013-01-14 15:09:00,
2013-01-14 15:14:00,37.4,33.6,29.75,WSW,248,5.0,6.0,86,0.00,,,0.07,meteohub,2013-01-14 15:14:00,
2013-01-14 15:19:00,37.4,33.6,29.75,WSW,248,6.0,6.0,86,0.00,,,0.07,meteohub,2013-01-14 15:19:00,
2013-01-14 15:24:00,37.6,33.3,29.75,WSW,248,8.0,8.0,84,0.00,,,0.07,meteohub,2013-01-14 15:24:00,
2013-01-14 15:29:00,37.6,32.9,29.75,WNW,292,4.0,8.0,83,0.00,,,0.07,meteohub,2013-01-14 15:29:00,
2013-01-14 15:34:00,37.6,32.5,29.75,West,270,4.0,8.0,82,0.00,,,0.07,meteohub,2013-01-14 15:34:00,
2013-01-14 15:39:00,37.6,32.4,29.75,West,270,4.0,8.0,81,0.00,,,0.07,meteohub,2013-01-14 15:39:00,
2013-01-14 15:44:00,37.4,32.2,29.75,West,270,4.0,7.0,81,0.00,,,0.07,meteohub,2013-01-14 15:44:00,
2013-01-14 15:49:00,37.4,32.4,29.75,West,270,3.0,8.0,82,0.00,,,0.07,meteohub,2013-01-14 15:49:00,
2013-01-14 15:54:00,37.0,32.0,29.75,West,270,6.0,8.0,82,0.00,,,0.07,meteohub,2013-01-14 15:54:00,
2013-01-14 15:59:00,37.0,31.8,29.75,West,270,5.0,9.0,81,0.00,,,0.07,meteohub,2013-01-14 15:59:00,
2013-01-14 16:04:00,36.9,31.8,29.75,WNW,292,6.0,9.0,82,0.00,,,0.07,meteohub,2013-01-14 16:04:00,
2013-01-14 16:09:00,36.3,31.3,29.75,WNW,292,4.0,9.0,82,0.00,,,0.07,meteohub,2013-01-14 16:09:00,
2013-01-14 16:14:00,36.1,31.3,29.75,West,270,4.0,6.0,82,0.00,,,0.07,meteohub,2013-01-14 16:14:00,
2013-01-14 16:19:00,35.8,31.1,29.75,West,270,6.0,6.0,83,0.00,,,0.07,meteohub,2013-01-14 16:19:00,
2013-01-14 16:25:00,35.6,30.9,29.75,West,270,5.0,6.0,83,0.00,,,0.07,meteohub,2013-01-14 16:25:00,
2013-01-14 16:30:00,35.6,30.9,29.75,West,270,4.0,6.0,83,0.00,,,0.07,meteohub,2013-01-14 16:30:00,
2013-01-14 16:35:00,35.4,31.1,29.75,WSW,248,6.0,6.0,84,0.00,,,0.07,meteohub,2013-01-14 16:35:00,
2013-01-14 16:40:00,35.4,31.5,29.75,WSW,248,6.0,7.0,85,0.00,,,0.07,meteohub,2013-01-14 16:40:00,
2013-01-14 16:45:00,35.4,31.5,29.75,West,270,4.0,7.0,85,0.00,,,0.07,meteohub,2013-01-14 16:45:00,
2013-01-14 16:50:00,35.2,31.3,29.75,WSW,248,5.0,7.0,85,0.00,,,0.07,meteohub,2013-01-14 16:50:00,
2013-01-14 16:55:00,35.1,31.1,29.75,West,270,4.0,6.0,85,0.00,,,0.07,meteohub,2013-01-14 16:55:00,
2013-01-14 17:00:00,34.7,30.7,29.75,WSW,248,5.0,6.0,85,0.00,,,0.07,meteohub,2013-01-14 17:00:00,
2013-01-14 17:05:00,34.5,30.6,29.75,West,270,8.0,8.0,85,0.00,,,0.07,meteohub,2013-01-14 17:05:00,
2013-01-14 17:10:00,34.5,30.2,29.75,West,270,3.0,8.0,84,0.00,,,0.07,meteohub,2013-01-14 17:10:00,
2013-01-14 17:15:00,34.3,30.0,29.75,West,270,5.0,8.0,84,0.00,,,0.07,meteohub,2013-01-14 17:15:00,
2013-01-14 17:20:00,34.0,29.7,29.75,West,270,7.0,7.0,84,0.00,,,0.07,meteohub,2013-01-14 17:20:00,
2013-01-14 17:25:00,33.8,29.1,29.75,West,270,5.0,9.0,83,0.00,,,0.07,meteohub,2013-01-14 17:25:00,
2013-01-14 17:30:00,33.8,29.1,29.75,West,270,5.0,9.0,83,0.00,,,0.07,meteohub,2013-01-14 17:30:00,
2013-01-14 17:35:00,33.4,28.8,29.78,West,270,3.0,9.0,83,0.00,,,0.07,meteohub,2013-01-14 17:35:00,
2013-01-14 17:40:00,33.3,28.9,29.78,WSW,248,5.0,6.0,84,0.00,,,0.07,meteohub,2013-01-14 17:40:00,
2013-01-14 17:46:00,33.3,28.9,29.78,WSW,248,4.0,6.0,84,0.00,,,0.07,meteohub,2013-01-14 17:46:00,
2013-01-14 17:51:00,33.3,28.9,29.75,WSW,248,4.0,6.0,84,0.00,,,0.07,meteohub,2013-01-14 17:51:00,
2013-01-14 17:56:00,33.4,29.5,29.75,WSW,248,5.0,6.0,85,0.00,,,0.07,meteohub,2013-01-14 17:56:00,
2013-01-14 18:01:00,33.3,29.3,29.75,West,270,7.0,7.0,85,0.00,,,0.07,meteohub,2013-01-14 18:01:00,
2013-01-14 18:06:00,33.3,29.3,29.75,West,270,4.0,7.0,85,0.00,,,0.07,meteohub,2013-01-14 18:06:00,
2013-01-14 18:11:00,33.1,29.1,29.75,West,270,3.0,7.0,85,0.00,,,0.07,meteohub,2013-01-14 18:11:00,
2013-01-14 18:16:00,32.7,28.8,29.75,WNW,292,4.0,7.0,85,0.00,,,0.07,meteohub,2013-01-14 18:16:00,
2013-01-14 18:21:00,32.7,28.8,29.75,WSW,248,4.0,7.0,85,0.00,,,0.07,meteohub,2013-01-14 18:21:00,
2013-01-14 18:26:00,32.7,28.8,29.75,West,270,4.0,7.0,85,0.00,,,0.07,meteohub,2013-01-14 18:26:00,
2013-01-14 18:31:00,32.5,28.6,29.75,West,270,4.0,7.0,85,0.00,,,0.07,meteohub,2013-01-14 18:31:00,
2013-01-14 18:36:00,32.4,28.4,29.75,West,270,4.0,5.0,85,0.00,,,0.07,meteohub,2013-01-14 18:36:00,
2013-01-14 18:41:00,32.2,28.4,29.75,WNW,292,4.0,6.0,86,0.00,,,0.07,meteohub,2013-01-14 18:41:00,
2013-01-14 18:46:00,32.2,28.4,29.75,WNW,292,5.0,6.0,86,0.00,,,0.07,meteohub,2013-01-14 18:46:00,
2013-01-14 18:51:00,32.0,28.2,29.75,WNW,292,4.0,6.0,86,0.00,,,0.07,meteohub,2013-01-14 18:51:00,
2013-01-14 18:56:00,32.0,28.2,29.75,WNW,292,4.0,6.0,86,0.00,,,0.07,meteohub,2013-01-14 18:56:00,
2013-01-14 19:02:00,32.2,28.4,29.75,WNW,292,3.0,5.0,86,0.00,,,0.07,meteohub,2013-01-14 19:02:00,
2013-01-14 19:07:00,32.0,28.2,29.75,WNW,292,3.0,5.0,86,0.00,,,0.07,meteohub,2013-01-14 19:07:00,
2013-01-14 19:12:00,31.6,27.9,29.75,NW,315,3.0,4.0,86,0.00,,,0.07,meteohub,2013-01-14 19:12:00,
2013-01-14 19:17:00,31.6,27.9,29.75,NW,315,6.0,6.0,86,0.00,,,0.07,meteohub,2013-01-14 19:17:00,
2013-01-14 19:22:00,31.6,27.9,29.78,WNW,292,6.0,6.0,86,0.00,,,0.07,meteohub,2013-01-14 19:22:00,
2013-01-14 19:27:00,32.2,28.8,29.78,NW,315,4.0,8.0,87,0.00,,,0.07,meteohub,2013-01-14 19:27:00,
2013-01-14 19:32:00,32.0,28.6,29.78,NW,315,4.0,8.0,87,0.00,,,0.07,meteohub,2013-01-14 19:32:00,
2013-01-14 19:37:00,31.6,27.9,29.78,NW,315,4.0,8.0,86,0.00,,,0.07,meteohub,2013-01-14 19:37:00,
2013-01-14 19:44:00,31.8,28.4,29.78,WNW,292,4.0,6.0,87,0.00,,,0.07,meteohub,2013-01-14 19:44:00,
2013-01-14 19:50:00,32.7,29.3,29.78,WNW,292,5.0,6.0,87,0.00,,,0.07,meteohub,2013-01-14 19:50:00,
2013-01-14 19:55:00,33.4,30.0,29.78,WNW,292,6.0,8.0,87,0.00,,,0.07,meteohub,2013-01-14 19:55:00,
2013-01-14 20:01:00,33.6,30.2,29.78,NW,315,5.0,8.0,87,0.00,,,0.07,meteohub,2013-01-14 20:01:00,
2013-01-14 20:06:00,33.6,29.8,29.78,WNW,292,4.0,8.0,86,0.00,,,0.07,meteohub,2013-01-14 20:06:00,
2013-01-14 20:11:00,33.8,29.8,29.78,WNW,292,4.0,7.0,85,0.00,,,0.07,meteohub,2013-01-14 20:11:00,
2013-01-14 20:17:00,33.8,29.8,29.78,NNW,338,8.0,8.0,85,0.00,,,0.07,meteohub,2013-01-14 20:17:00,
2013-01-14 20:22:00,34.0,29.7,29.78,North,0,6.0,8.0,84,0.00,,,0.07,meteohub,2013-01-14 20:22:00,
2013-01-14 20:27:00,33.8,29.1,29.78,NNW,338,7.0,10.0,83,0.00,,,0.07,meteohub,2013-01-14 20:27:00,
2013-01-14 20:32:00,33.8,28.9,29.78,NNW,338,8.0,10.0,82,0.00,,,0.07,meteohub,2013-01-14 20:32:00,
2013-01-14 20:37:00,33.8,28.6,29.78,NNW,338,8.0,10.0,81,0.00,,,0.07,meteohub,2013-01-14 20:37:00,
2013-01-14 20:42:00,33.6,28.4,29.78,NNW,338,6.0,8.0,81,0.00,,,0.07,meteohub,2013-01-14 20:42:00,
2013-01-14 20:47:00,33.4,28.6,29.78,North,0,5.0,8.0,82,0.00,,,0.07,meteohub,2013-01-14 20:47:00,
2013-01-14 20:52:00,33.3,28.4,29.78,NNW,338,4.0,8.0,82,0.00,,,0.07,meteohub,2013-01-14 20:52:00,
2013-01-14 20:57:00,33.1,28.2,29.78,NNW,338,4.0,8.0,82,0.00,,,0.07,meteohub,2013-01-14 20:57:00,
2013-01-14 21:02:00,32.7,27.9,29.78,NNW,338,3.0,6.0,82,0.00,,,0.07,meteohub,2013-01-14 21:02:00,
2013-01-14 21:07:00,32.5,27.3,29.78,North,0,2.0,6.0,81,0.00,,,0.07,meteohub,2013-01-14 21:07:00,
2013-01-14 21:12:00,32.2,27.0,29.78,North,0,0.0,5.0,81,0.00,,,0.07,meteohub,2013-01-14 21:12:00,
2013-01-14 21:17:00,32.0,26.8,29.78,WSW,248,0.0,4.0,81,0.00,,,0.07,meteohub,2013-01-14 21:17:00,
2013-01-14 21:22:00,32.2,27.3,29.78,SW,225,0.0,3.0,82,0.00,,,0.07,meteohub,2013-01-14 21:22:00,
2013-01-14 21:27:00,32.2,27.7,29.78,South,180,3.0,3.0,83,0.00,,,0.07,meteohub,2013-01-14 21:27:00,
2013-01-14 21:32:00,32.2,27.7,29.78,SSW,202,2.0,4.0,83,0.00,,,0.07,meteohub,2013-01-14 21:32:00,
2013-01-14 21:38:00,32.4,28.0,29.78,SSW,202,2.0,4.0,84,0.00,,,0.07,meteohub,2013-01-14 21:38:00,
2013-01-14 21:43:00,32.7,28.4,29.78,SW,225,3.0,4.0,84,0.00,,,0.07,meteohub,2013-01-14 21:43:00,
2013-01-14 21:48:00,32.9,28.9,29.78,WNW,292,4.0,4.0,85,0.00,,,0.07,meteohub,2013-01-14 21:48:00,
2013-01-14 21:53:00,33.1,29.1,29.78,WNW,292,4.0,5.0,85,0.00,,,0.07,meteohub,2013-01-14 21:53:00,
2013-01-14 21:58:00,33.1,29.1,29.78,West,270,3.0,5.0,85,0.00,,,0.07,meteohub,2013-01-14 21:58:00,
2013-01-14 22:03:00,33.1,29.1,29.78,West,270,2.0,5.0,85,0.00,,,0.07,meteohub,2013-01-14 22:03:00,
2013-01-14 22:08:00,33.3,29.3,29.78,WNW,292,4.0,5.0,85,0.00,,,0.07,meteohub,2013-01-14 22:08:00,
2013-01-14 22:13:00,33.4,29.5,29.78,NW,315,4.0,5.0,85,0.00,,,0.07,meteohub,2013-01-14 22:13:00,
2013-01-14 22:18:00,33.8,29.8,29.81,NW,315,6.0,6.0,85,0.00,,,0.07,meteohub,2013-01-14 22:18:00,
2013-01-14 22:23:00,34.2,30.4,29.81,NNW,338,4.0,6.0,86,0.00,,,0.07,meteohub,2013-01-14 22:23:00,
2013-01-14 22:28:00,34.3,30.6,29.81,NNW,338,5.0,6.0,86,0.00,,,0.07,meteohub,2013-01-14 22:28:00,
2013-01-14 22:33:00,34.5,30.7,29.78,WNW,292,5.0,6.0,86,0.00,,,0.07,meteohub,2013-01-14 22:33:00,
2013-01-14 22:38:00,34.7,30.7,29.78,WNW,292,6.0,6.0,85,0.00,,,0.07,meteohub,2013-01-14 22:38:00,
2013-01-14 22:43:00,34.9,30.6,29.78,NW,315,6.0,7.0,84,0.00,,,0.07,meteohub,2013-01-14 22:43:00,
2013-01-14 22:48:00,34.9,30.6,29.78,NW,315,6.0,9.0,84,0.00,,,0.07,meteohub,2013-01-14 22:48:00,
2013-01-14 22:54:00,34.9,30.6,29.78,NNW,338,6.0,9.0,84,0.00,,,0.07,meteohub,2013-01-14 22:54:00,
2013-01-14 22:59:00,34.7,30.0,29.78,NW,315,5.0,9.0,83,0.00,,,0.07,meteohub,2013-01-14 22:59:00,
2013-01-14 23:04:00,34.7,30.0,29.81,NW,315,5.0,6.0,83,0.00,,,0.07,meteohub,2013-01-14 23:04:00,
2013-01-14 23:09:00,34.5,29.8,29.81,NW,315,4.0,6.0,83,0.00,,,0.07,meteohub,2013-01-14 23:09:00,
2013-01-14 23:14:00,34.5,29.7,29.81,NW,315,2.0,6.0,82,0.00,,,0.07,meteohub,2013-01-14 23:14:00,
2013-01-14 23:19:00,34.5,29.7,29.81,East,90,0.0,6.0,82,0.00,,,0.07,meteohub,2013-01-14 23:19:00,
2013-01-14 23:24:00,34.3,29.5,29.81,East,90,0.0,4.0,82,0.00,,,0.07,meteohub,2013-01-14 23:24:00,
2013-01-14 23:29:00,34.3,29.5,29.81,ENE,68,0.0,4.0,82,0.00,,,0.07,meteohub,2013-01-14 23:29:00,
2013-01-14 23:34:00,34.0,29.1,29.81,East,90,0.0,2.0,82,0.00,,,0.07,meteohub,2013-01-14 23:34:00,
2013-01-14 23:39:00,33.8,28.9,29.81,NNW,338,0.0,0.0,82,0.00,,,0.07,meteohub,2013-01-14 23:39:00,
2013-01-14 23:44:00,34.2,29.5,29.81,NNW,338,6.0,6.0,83,0.00,,,0.07,meteohub,2013-01-14 23:44:00,
2013-01-14 23:49:00,34.5,30.6,29.81,North,0,9.0,9.0,85,0.00,,,0.07,meteohub,2013-01-14 23:49:00,
2013-01-14 23:54:00,34.5,30.7,29.81,NNW,338,7.0,10.0,86,0.00,,,0.07,meteohub,2013-01-14 23:54:00,
2013-01-14 23:59:00,34.3,30.9,29.81,NNW,338,7.0,10.0,87,0.00,,,0.07,meteohub,2013-01-14 23:59:00,